Garden City, Texas
Current Conditions -  °F | °C
As of 11:55 AM on Thursday 30 Oct 2014 (Local Time) from KBPG Reporting Station
Clear Clear  
Wind Chill: 74°   Ceiling: Unl
Heat Index: 74°   Visibility: 10mi
Dew Point: 62°   Wind: 10mph
Humidity: 67%   Direction: 200°SSW
Pressure: 30.17"   Gusts: NA
Location:  31.86°N, 101.48°W
Report Text: KBPG 301655Z AUTO 20009KT 10SM CLR 23/17 A3017 RMK AO2 T02330169
Loading
Personal Weather Stations






























Interactive Weather Map
Tropical Storm Tracking
New forecast layout! Learn more

10-Day Weather Forecast

Advertisements
Track Severe Weather on mobile